createdAt,value
2023-04-01T00:01:33.659Z,46.14
2023-04-01T00:04:02.993Z,46.27
2023-04-01T00:06:30.741Z,46.20
2023-04-01T00:08:57.517Z,46.30
2023-04-01T00:11:24.590Z,46.58
2023-04-01T00:13:51.346Z,46.34
2023-04-01T00:16:22.396Z,46.29
2023-04-01T00:18:50.454Z,46.22
2023-04-01T00:21:17.990Z,46.12
2023-04-01T00:23:44.952Z,46.22
2023-04-01T00:26:13.439Z,46.03
2023-04-01T00:28:41.101Z,46.49
2023-04-01T00:31:08.994Z,46.44
2023-04-01T00:33:36.697Z,46.20
2023-04-01T00:36:20.411Z,46.30
2023-04-01T00:38:47.870Z,46.41
2023-04-01T00:41:16.269Z,46.27
2023-04-01T00:43:44.089Z,46.30
2023-04-01T00:46:11.230Z,46.33
2023-04-01T00:48:40.315Z,46.34
2023-04-01T00:51:12.991Z,46.52
2023-04-01T00:53:42.208Z,46.57
2023-04-01T00:56:33.808Z,46.46
2023-04-01T00:59:06.770Z,46.50
2023-04-01T01:01:33.865Z,46.34
2023-04-01T01:04:01.176Z,46.49
2023-04-01T01:06:40.024Z,46.53
2023-04-01T01:09:34.083Z,46.44
2023-04-01T01:12:27.221Z,46.36
2023-04-01T01:15:18.747Z,46.37
2023-04-01T01:17:48.882Z,46.47
2023-04-01T01:20:39.135Z,46.48
2023-04-01T01:23:30.866Z,46.50
2023-04-01T01:26:45.470Z,46.54
2023-04-01T01:29:12.540Z,46.56
2023-04-01T01:31:42.195Z,46.46
2023-04-01T01:34:21.235Z,46.44
2023-04-01T01:36:49.887Z,46.37
2023-04-01T01:39:16.969Z,46.57
2023-04-01T01:41:43.752Z,46.31
2023-04-01T01:44:12.141Z,46.47
2023-04-01T01:46:39.232Z,46.39
2023-04-01T01:49:06.320Z,46.27
2023-04-01T01:51:33.112Z,46.69
2023-04-01T01:54:00.267Z,46.27
2023-04-01T01:56:28.217Z,46.37
2023-04-01T01:58:57.829Z,46.21
2023-04-01T02:01:26.879Z,46.05
2023-04-01T02:03:54.083Z,46.24
2023-04-01T02:06:22.978Z,46.34
2023-04-01T02:09:00.496Z,46.45
2023-04-01T02:11:30.148Z,46.58
2023-04-01T02:14:27.679Z,46.37
2023-04-01T02:17:08.623Z,46.68
2023-04-01T02:19:39.358Z,46.54
2023-04-01T02:22:09.200Z,46.39
2023-04-01T02:24:36.422Z,46.21
2023-04-01T02:27:03.249Z,46.52
2023-04-01T02:29:30.404Z,46.54
2023-04-01T02:31:57.234Z,46.68
2023-04-01T02:34:24.501Z,46.51
2023-04-01T02:36:51.611Z,46.75
2023-04-01T02:39:18.826Z,46.80
2023-04-01T02:41:45.835Z,46.34
2023-04-01T02:44:13.901Z,46.67
2023-04-01T02:46:40.888Z,47.01
2023-04-01T02:49:07.965Z,46.72
2023-04-01T02:51:34.850Z,46.86
2023-04-01T02:54:01.986Z,46.91
2023-04-01T02:56:28.799Z,46.69
2023-04-01T02:58:56.002Z,46.71
2023-04-01T03:01:22.879Z,46.82
2023-04-01T03:03:50.487Z,46.87
2023-04-01T03:06:17.345Z,46.60
2023-04-01T03:08:44.706Z,46.85
2023-04-01T03:11:11.943Z,46.97
2023-04-01T03:13:39.112Z,46.81
2023-04-01T03:16:06.366Z,46.95
2023-04-01T03:18:33.506Z,47.34
2023-04-01T03:21:14.218Z,47.29
2023-04-01T03:23:41.382Z,47.21
2023-04-01T03:26:08.092Z,47.50
2023-04-01T03:28:35.347Z,47.08
2023-04-01T03:31:02.318Z,47.44
2023-04-01T03:33:29.519Z,47.46
2023-04-01T03:35:56.473Z,47.34
2023-04-01T03:38:23.538Z,47.29
2023-04-01T03:40:50.451Z,47.59
2023-04-01T03:43:17.788Z,47.55
2023-04-01T03:45:48.480Z,47.73
2023-04-01T03:48:15.988Z,47.68
2023-04-01T03:50:42.789Z,47.52
2023-04-01T03:53:10.097Z,47.58
2023-04-01T03:55:37.241Z,47.86
2023-04-01T03:58:05.576Z,47.55
2023-04-01T04:00:32.481Z,47.45
2023-04-01T04:02:59.808Z,47.68
2023-04-01T04:05:26.945Z,47.64
2023-04-01T04:07:54.153Z,47.60
2023-04-01T04:10:21.084Z,47.80
2023-04-01T04:12:48.122Z,47.71
2023-04-01T04:15:14.928Z,47.65
2023-04-01T04:17:42.325Z,47.80
2023-04-01T04:20:09.794Z,47.71
2023-04-01T04:22:36.943Z,47.82
2023-04-01T04:25:03.901Z,47.89
2023-04-01T04:27:31.076Z,47.64
2023-04-01T04:29:57.837Z,47.49
2023-04-01T04:32:24.953Z,47.56
2023-04-01T04:34:51.720Z,47.32
2023-04-01T04:37:18.805Z,47.42
2023-04-01T04:39:45.545Z,47.76
2023-04-01T04:42:12.602Z,47.96
2023-04-01T04:44:40.409Z,47.85
2023-04-01T04:47:07.628Z,47.98
2023-04-01T04:49:34.584Z,47.90
2023-04-01T04:52:01.650Z,47.91
2023-04-01T04:54:28.371Z,48.00
2023-04-01T04:56:55.448Z,48.01
2023-04-01T04:59:22.288Z,47.91
2023-04-01T05:01:49.453Z,47.83
2023-04-01T05:04:16.325Z,48.05
2023-04-01T05:06:44.003Z,48.13
2023-04-01T05:09:10.857Z,48.03
2023-04-01T05:11:37.921Z,48.09
2023-04-01T05:14:04.680Z,48.11
2023-04-01T05:16:32.568Z,48.27
2023-04-01T05:18:59.360Z,48.19
2023-04-01T05:21:26.535Z,48.19
2023-04-01T05:23:53.315Z,48.42
2023-04-01T05:26:20.410Z,48.14
2023-04-01T05:28:47.139Z,48.29
2023-04-01T05:31:14.372Z,48.27
2023-04-01T05:33:41.110Z,48.05
2023-04-01T05:36:17.316Z,48.21
2023-04-01T05:38:44.764Z,48.38
2023-04-01T05:41:11.873Z,48.33
2023-04-01T05:43:38.954Z,48.00
2023-04-01T05:46:06.086Z,48.15
2023-04-01T05:48:34.316Z,48.33
2023-04-01T05:51:01.919Z,48.44
2023-04-01T05:53:28.692Z,48.40
2023-04-01T05:55:55.800Z,48.43
2023-04-01T05:58:22.582Z,48.47
2023-04-01T06:00:59.057Z,48.34
2023-04-01T06:03:32.932Z,48.42
2023-04-01T06:06:02.098Z,48.40
2023-04-01T06:08:29.205Z,48.14
2023-04-01T06:11:19.350Z,48.26
2023-04-01T06:14:01.686Z,48.38
2023-04-01T06:17:13.584Z,48.46
2023-04-01T06:19:54.685Z,48.49
2023-04-01T06:22:48.900Z,48.56
2023-04-01T06:25:44.816Z,48.52
2023-04-01T06:28:35.887Z,48.95
2023-04-01T06:31:08.862Z,48.93
2023-04-01T06:33:43.648Z,49.07
2023-04-01T06:36:21.058Z,48.90
2023-04-01T06:39:26.406Z,49.08
2023-04-01T06:42:14.074Z,48.90
2023-04-01T06:45:04.424Z,48.79
2023-04-01T06:47:49.418Z,48.92
2023-04-01T06:50:34.652Z,48.64
2023-04-01T06:53:07.453Z,49.22
2023-04-01T06:55:53.046Z,48.69
2023-04-01T06:58:24.811Z,48.66
2023-04-01T07:00:57.736Z,49.18
2023-04-01T07:03:30.466Z,49.35
2023-04-01T07:06:09.572Z,49.09
2023-04-01T07:08:37.860Z,48.80
2023-04-01T07:11:06.411Z,48.69
2023-04-01T07:13:42.080Z,49.32
2023-04-01T07:16:18.268Z,48.94
2023-04-01T07:18:51.596Z,49.10
2023-04-01T07:21:36.785Z,49.22
2023-04-01T07:24:10.230Z,49.65
2023-04-01T07:26:37.332Z,49.55
2023-04-01T07:29:07.221Z,49.61
2023-04-01T07:31:40.558Z,49.61
2023-04-01T07:34:35.398Z,49.75
2023-04-01T07:37:24.597Z,49.92
2023-04-01T07:40:07.586Z,49.60
2023-04-01T07:42:50.170Z,49.93
2023-04-01T07:45:23.500Z,49.80
2023-04-01T07:47:53.600Z,49.90
2023-04-01T07:50:43.050Z,50.09
2023-04-01T07:53:19.232Z,49.90
2023-04-01T07:56:06.483Z,49.87
2023-04-01T07:58:45.716Z,50.13
2023-04-01T08:01:21.758Z,50.24
2023-04-01T08:03:59.326Z,50.52
2023-04-01T08:06:37.728Z,50.36
2023-04-01T08:09:20.457Z,50.15
2023-04-01T08:15:08.893Z,50.59
2023-04-01T08:18:06.721Z,50.45
2023-04-01T08:21:11.486Z,50.51
2023-04-01T08:23:39.588Z,50.20
2023-04-01T08:26:15.010Z,50.60
2023-04-01T08:28:52.898Z,50.50
2023-04-01T08:31:21.245Z,50.27
2023-04-01T08:33:48.304Z,50.51
2023-04-01T08:36:22.150Z,50.75
2023-04-01T08:39:11.802Z,50.86
2023-04-01T08:41:57.197Z,50.87
2023-04-01T08:44:43.185Z,50.25
2023-04-01T08:47:32.444Z,50.86
2023-04-01T08:50:20.894Z,50.89
2023-04-01T08:52:54.044Z,50.58
2023-04-01T08:55:26.007Z,50.66
2023-04-01T08:58:30.910Z,50.44
2023-04-01T09:01:06.606Z,50.53
2023-04-01T09:03:45.953Z,50.86
2023-04-01T09:06:41.935Z,50.52
2023-04-01T09:09:12.064Z,50.61
2023-04-01T09:12:16.419Z,50.41
2023-04-01T09:14:52.677Z,50.71
2023-04-01T09:17:28.280Z,50.82
2023-04-01T09:20:01.590Z,50.37
2023-04-01T09:22:48.621Z,50.60
2023-04-01T09:25:47.662Z,50.31
2023-04-01T09:28:18.785Z,50.46
2023-04-01T09:30:59.304Z,50.14
2023-04-01T09:33:47.414Z,50.20
2023-04-01T09:36:49.026Z,50.02
2023-04-01T09:39:24.651Z,49.66
2023-04-01T09:42:11.951Z,50.21
2023-04-01T09:44:42.978Z,49.94
2023-04-01T09:47:28.504Z,49.76
2023-04-01T09:50:27.455Z,50.02
2023-04-01T09:53:29.901Z,49.87
2023-04-01T09:56:21.122Z,49.85
2023-04-01T09:59:29.720Z,49.49
2023-04-01T10:02:15.389Z,49.70
2023-04-01T10:04:50.589Z,49.40
2023-04-01T10:07:29.720Z,49.54
2023-04-01T10:10:20.408Z,49.04
2023-04-01T10:13:15.492Z,48.98
2023-04-01T10:15:42.584Z,48.95
2023-04-01T10:18:56.987Z,48.66
2023-04-01T10:21:40.005Z,48.63
2023-04-01T10:24:31.635Z,48.46
2023-04-01T10:27:14.977Z,48.55
2023-04-01T10:29:44.717Z,48.56
2023-04-01T10:32:49.651Z,48.47
2023-04-01T10:35:38.273Z,48.50
2023-04-01T10:38:20.715Z,48.14
2023-04-01T10:41:07.404Z,47.92
2023-04-01T10:43:43.592Z,48.01
2023-04-01T10:46:16.469Z,47.79
2023-04-01T10:48:56.501Z,47.86
2023-04-01T10:51:49.797Z,47.88
2023-04-01T10:54:47.762Z,47.64
2023-04-01T10:57:33.166Z,47.60
2023-04-01T11:00:00.310Z,47.45
2023-04-01T11:02:58.281Z,47.44
2023-04-01T11:05:52.782Z,47.53
2023-04-01T11:08:40.633Z,47.40
2023-04-01T11:11:46.261Z,47.28
2023-04-01T11:14:42.446Z,47.06
2023-04-01T11:17:31.593Z,47.34
2023-04-01T11:20:04.694Z,47.29
2023-04-01T11:22:59.654Z,47.25
2023-04-01T11:25:31.433Z,47.24
2023-04-01T11:28:25.094Z,46.93
2023-04-01T11:31:13.062Z,46.80
2023-04-01T11:34:16.645Z,46.84
2023-04-01T11:37:03.702Z,46.45
2023-04-01T11:40:07.168Z,46.52
2023-04-01T11:43:01.525Z,46.37
2023-04-01T11:45:41.382Z,46.40
2023-04-01T11:48:23.221Z,46.36
2023-04-01T11:51:11.589Z,46.30
2023-04-01T11:54:09.103Z,46.52
2023-04-01T11:56:57.452Z,46.16
2023-04-01T11:59:46.030Z,46.18
2023-04-01T12:02:33.374Z,45.82
2023-04-01T12:05:09.526Z,45.77
2023-04-01T12:07:54.606Z,45.78
2023-04-01T12:10:33.749Z,45.95
2023-04-01T12:13:20.080Z,45.43
2023-04-01T12:16:05.987Z,45.22
2023-04-01T12:19:11.646Z,45.16
2023-04-01T12:21:53.516Z,45.24
2023-04-01T12:24:39.566Z,44.86
2023-04-01T12:27:24.594Z,45.10
2023-04-01T12:30:00.846Z,45.00
2023-04-01T12:32:42.849Z,44.80
2023-04-01T12:35:19.546Z,44.88
2023-04-01T12:38:12.200Z,44.84
2023-04-01T12:40:58.137Z,44.68
2023-04-01T12:43:27.672Z,44.54
2023-04-01T12:46:09.793Z,44.57
2023-04-01T12:48:43.897Z,44.28
2023-04-01T12:51:32.782Z,44.44
2023-04-01T12:54:10.112Z,44.54
2023-04-01T12:56:52.336Z,44.47
2023-04-01T12:59:38.568Z,44.36
2023-04-01T13:02:24.273Z,44.85
2023-04-01T13:04:56.994Z,44.27
2023-04-01T13:07:35.734Z,44.83
2023-04-01T13:10:44.114Z,44.84
2023-04-01T13:13:53.900Z,44.55
2023-04-01T13:16:25.507Z,44.17
2023-04-01T13:19:01.730Z,44.64
2023-04-01T13:21:44.812Z,44.49
2023-04-01T13:24:44.581Z,44.63
2023-04-01T13:27:20.398Z,44.55
2023-04-01T13:30:31.953Z,44.81
2023-04-01T13:33:36.022Z,44.58
2023-04-01T13:36:19.434Z,44.45
2023-04-01T13:38:46.430Z,44.73
2023-04-01T13:41:41.725Z,44.75
2023-04-01T13:44:32.189Z,44.87
2023-04-01T13:47:24.025Z,44.63
2023-04-01T13:50:13.905Z,44.89
2023-04-01T13:53:03.140Z,44.75
2023-04-01T13:55:48.358Z,44.69
2023-04-01T13:58:48.038Z,44.72
2023-04-01T14:01:32.369Z,44.58
2023-04-01T14:04:21.191Z,44.46
2023-04-01T14:07:01.966Z,44.42
2023-04-01T14:09:50.388Z,44.13
2023-04-01T14:12:35.663Z,44.32
2023-04-01T14:15:35.335Z,44.68
2023-04-01T14:18:25.023Z,44.27
2023-04-01T14:21:21.394Z,44.17
2023-04-01T14:23:57.376Z,44.10
2023-04-01T14:27:03.479Z,43.69
2023-04-01T14:29:36.645Z,43.91
2023-04-01T14:32:34.459Z,43.99
2023-04-01T14:35:15.829Z,44.10
2023-04-01T14:38:01.263Z,44.29
2023-04-01T14:40:30.125Z,44.25
2023-04-01T14:43:09.009Z,44.64
2023-04-01T14:46:12.807Z,44.25
2023-04-01T14:48:49.526Z,44.46
2023-04-01T14:51:18.002Z,44.66
2023-04-01T14:54:04.301Z,44.97
2023-04-01T14:56:52.248Z,44.92
2023-04-01T14:59:22.478Z,44.90
2023-04-01T15:02:08.175Z,44.92
2023-04-01T15:04:39.729Z,44.84
2023-04-01T15:07:06.688Z,44.70
2023-04-01T15:09:55.116Z,45.06
2023-04-01T15:12:31.356Z,44.82
2023-04-01T15:15:19.756Z,45.05
2023-04-01T15:18:05.285Z,45.08
2023-04-01T15:20:32.379Z,44.81
2023-04-01T15:23:14.578Z,44.77
2023-04-01T15:25:44.760Z,44.89
2023-04-01T15:28:33.522Z,44.97
2023-04-01T15:31:15.613Z,45.08
2023-04-01T15:34:08.412Z,45.21
2023-04-01T15:37:03.521Z,45.04
2023-04-01T15:39:36.365Z,45.11
2023-04-01T15:42:22.062Z,45.11
2023-04-01T15:45:07.322Z,45.29
2023-04-01T15:48:00.186Z,45.35
2023-04-01T15:50:55.525Z,45.15
2023-04-01T15:53:25.655Z,45.33
2023-04-01T15:56:00.558Z,45.58
2023-04-01T15:58:52.536Z,45.11
2023-04-01T16:01:35.664Z,45.19
2023-04-01T16:04:14.954Z,45.30
2023-04-01T16:06:54.112Z,45.54
2023-04-01T16:09:46.319Z,45.41
2023-04-01T16:12:13.149Z,45.27
2023-04-01T16:15:04.382Z,45.33
2023-04-01T16:17:39.967Z,45.35
2023-04-01T16:20:19.085Z,45.35
2023-04-01T16:23:03.764Z,45.15
2023-04-01T16:25:37.225Z,45.44
2023-04-01T16:28:13.076Z,45.30
2023-04-01T16:30:45.350Z,45.48
2023-04-01T16:33:29.063Z,45.37
2023-04-01T16:36:35.430Z,45.14
2023-04-01T16:39:17.122Z,45.41
2023-04-01T16:41:50.983Z,45.41
2023-04-01T16:44:25.467Z,45.39
2023-04-01T16:47:08.830Z,45.30
2023-04-01T16:49:45.516Z,45.55
2023-04-01T16:52:12.855Z,45.72
2023-04-01T16:55:01.395Z,45.56
2023-04-01T16:57:29.668Z,45.85
2023-04-01T17:00:15.215Z,45.57
2023-04-01T17:02:52.443Z,45.38
2023-04-01T17:05:19.515Z,45.76
2023-04-01T17:07:55.921Z,45.72
2023-04-01T17:10:41.374Z,45.45
2023-04-01T17:13:17.796Z,45.57
2023-04-01T17:15:53.831Z,45.66
2023-04-01T17:18:39.359Z,45.50
2023-04-01T17:21:08.885Z,45.69
2023-04-01T17:24:11.105Z,45.52
2023-04-01T17:26:39.428Z,45.71
2023-04-01T17:29:16.570Z,45.70
2023-04-01T17:32:12.726Z,45.74
2023-04-01T17:34:39.832Z,45.81
2023-04-01T17:37:10.851Z,45.78
2023-04-01T17:39:56.435Z,46.27
2023-04-01T17:42:24.239Z,46.32
2023-04-01T17:45:20.494Z,46.13
2023-04-01T17:48:04.694Z,45.97
2023-04-01T17:50:37.368Z,46.54
2023-04-01T17:53:14.383Z,46.21
2023-04-01T17:56:00.089Z,46.18
2023-04-01T17:58:30.997Z,46.46
2023-04-01T18:00:59.698Z,46.22
2023-04-01T18:03:45.816Z,46.04
2023-04-01T18:06:21.098Z,46.34
2023-04-01T18:09:02.926Z,46.18
2023-04-01T18:12:06.201Z,46.05
2023-04-01T18:15:07.461Z,46.10
2023-04-01T18:18:02.351Z,46.11
2023-04-01T18:20:38.172Z,46.09
2023-04-01T18:23:28.248Z,46.38
2023-04-01T18:25:56.734Z,46.28
2023-04-01T18:28:39.717Z,46.31
2023-04-01T18:31:20.462Z,46.19
2023-04-01T18:33:53.603Z,46.25
2023-04-01T18:36:26.139Z,46.39
2023-04-01T18:39:41.724Z,46.33
2023-04-01T18:42:26.539Z,46.31
2023-04-01T18:44:57.266Z,46.32
2023-04-01T18:47:51.712Z,46.44
2023-04-01T18:50:38.930Z,46.59
2023-04-01T18:53:43.893Z,46.45
2023-04-01T18:56:12.302Z,46.58
2023-04-01T18:58:51.714Z,46.46
2023-04-01T19:01:41.326Z,46.45
2023-04-01T19:04:31.853Z,46.35
2023-04-01T19:07:01.526Z,46.34
2023-04-01T19:09:29.328Z,46.16
2023-04-01T19:12:08.794Z,46.58
2023-04-01T19:14:47.787Z,46.38
2023-04-01T19:18:08.807Z,46.55
2023-04-01T19:20:38.505Z,46.19
2023-04-01T19:23:27.344Z,46.48
2023-04-01T19:25:59.634Z,46.19
2023-04-01T19:28:41.522Z,46.13
2023-04-01T19:31:41.628Z,46.29
2023-04-01T19:34:39.899Z,46.27
2023-04-01T19:37:12.934Z,46.33
2023-04-01T19:40:17.787Z,46.37
2023-04-01T19:42:50.438Z,46.30
2023-04-01T19:45:31.447Z,46.33
2023-04-01T19:48:39.458Z,46.24
2023-04-01T19:51:06.784Z,46.33
2023-04-01T19:54:00.736Z,46.33
2023-04-01T19:56:38.800Z,46.40
2023-04-01T19:59:20.080Z,46.52
2023-04-01T20:01:59.278Z,46.43
2023-04-01T20:04:57.299Z,46.45
2023-04-01T20:07:38.872Z,46.41
2023-04-01T20:10:15.953Z,46.58
2023-04-01T20:13:20.443Z,46.36
2023-04-01T20:16:09.049Z,46.54
2023-04-01T20:18:48.330Z,46.64
2023-04-01T20:21:30.307Z,46.34
2023-04-01T20:24:02.921Z,46.14
2023-04-01T20:26:37.700Z,46.38
2023-04-01T20:29:23.162Z,46.27
2023-04-01T20:32:05.169Z,46.25
2023-04-01T20:34:52.161Z,46.29
2023-04-01T20:37:45.022Z,46.45
2023-04-01T20:40:42.094Z,46.27
2023-04-01T20:43:18.676Z,46.55
2023-04-01T20:46:00.753Z,46.56
2023-04-01T20:48:55.198Z,46.40
2023-04-01T20:51:44.495Z,46.66
2023-04-01T20:54:49.111Z,46.68
2023-04-01T20:57:33.303Z,46.37
2023-04-01T21:00:35.530Z,46.59
2023-04-01T21:03:13.506Z,46.52
2023-04-01T21:05:49.514Z,46.52
2023-04-01T21:08:53.059Z,46.43
2023-04-01T21:11:19.885Z,46.55
2023-04-01T21:13:53.135Z,46.52
2023-04-01T21:16:41.856Z,46.67
2023-04-01T21:19:27.888Z,46.42
2023-04-01T21:22:14.853Z,46.57
2023-04-01T21:25:19.343Z,46.34
2023-04-01T21:27:58.951Z,46.64
2023-04-01T21:30:29.206Z,46.69
2023-04-01T21:33:45.784Z,46.44
2023-04-01T21:36:20.574Z,46.59
2023-04-01T21:39:44.773Z,46.57
2023-04-01T21:42:14.470Z,46.67
2023-04-01T21:44:47.369Z,46.59
2023-04-01T21:47:29.785Z,46.37
2023-04-01T21:50:21.244Z,46.60
2023-04-01T21:53:21.078Z,46.74
2023-04-01T21:56:23.562Z,46.73
2023-04-01T21:59:09.000Z,46.61
2023-04-01T22:01:49.625Z,46.62
2023-04-01T22:04:31.836Z,46.63
2023-04-01T22:07:03.465Z,46.44
2023-04-01T22:09:58.772Z,46.68
2023-04-01T22:12:35.002Z,46.62
2023-04-01T22:15:05.271Z,46.67
2023-04-01T22:17:47.691Z,46.46
2023-04-01T22:20:20.498Z,46.75
2023-04-01T22:23:34.110Z,46.60
2023-04-01T22:26:35.384Z,46.55
2023-04-01T22:29:08.989Z,46.61
2023-04-01T22:31:52.822Z,46.96
2023-04-01T22:34:44.397Z,46.49
2023-04-01T22:37:38.530Z,46.54
2023-04-01T22:40:43.489Z,46.82
2023-04-01T22:43:16.511Z,46.83
2023-04-01T22:45:58.129Z,46.87
2023-04-01T22:48:48.846Z,46.76
2023-04-01T22:52:09.578Z,46.76
2023-04-01T22:54:45.002Z,46.72
2023-04-01T22:57:14.770Z,46.91
2023-04-01T22:59:43.599Z,46.78
2023-04-01T23:02:23.109Z,46.67
2023-04-01T23:04:54.629Z,46.58
2023-04-01T23:07:50.668Z,46.80
2023-04-01T23:10:26.235Z,46.81
2023-04-01T23:12:53.811Z,46.76
2023-04-01T23:15:20.935Z,46.82
2023-04-01T23:18:23.544Z,46.83
2023-04-01T23:20:56.705Z,46.91
2023-04-01T23:23:30.846Z,46.46
2023-04-01T23:26:04.096Z,46.91
2023-04-01T23:28:33.908Z,46.70
2023-04-01T23:31:01.184Z,46.87
2023-04-01T23:33:31.444Z,46.95
2023-04-01T23:36:12.753Z,46.93
2023-04-01T23:38:42.751Z,46.74
2023-04-01T23:41:30.896Z,46.71
2023-04-01T23:44:06.661Z,47.09
2023-04-01T23:46:34.743Z,46.76
2023-04-01T23:49:02.292Z,46.69
2023-04-01T23:51:37.386Z,46.89
2023-04-01T23:54:25.577Z,46.96
2023-04-01T23:56:53.431Z,46.64
2023-04-01T23:59:24.415Z,46.91
